LFRQ/UIP METAR and TAF weather

Enter ICAO airport designator
Station Type Date Time Source
LFRQ METAR 2019/08/22 04:30 UTC NOAA

LFRQ 220430Z AUTO 02004KT CAVOK 12/09 Q1025 NOSIG


Station Type Date Time Source
LFRQ Decoded METAR 2019/08/22 04:30 UTC NOAA

Station name not available
Aug 22, 2019 - 12:30 AM EDT / 2019.08.22 0430 UTC
Wind: from the NNE (020 degrees) at 5 MPH (4 KT):0
Visibility: greater than 7 mile(s):0
Temperature: 53 F (12 C)
Dew Point: 48 F (9 C)
Relative Humidity: 81%
Pressure (altimeter): 30.27 in. Hg (1025 hPa)
ob: LFRQ 220430Z AUTO 02004KT CAVOK 12/09 Q1025 NOSIG
cycle: 4

Station Type Date Time Source
LFRQ TAF 2019/08/21 21:59 UTC NOAA

TAF LFRQ 212100Z 2121/2212 CNL

Example: see airport list